Time;durP1;ratioP1;P1;durP2;ratioP2;P2;SDS_P1;SDS_P2;PMS_P1;PMS_P2;Temp;Humidity;BMP_temperature;BMP_pressure;BME280_temperature;BME280_humidity;BME280_pressure;Samples;Min_cycle;Max_cycle;Signal;HPM_P1;HPM_P2
2023/08/01 00:01:04;;;;;;;4.67;3.30;;;19.70;99.90;;;;;;5112955;27;20443;-67
2023/08/01 00:03:30;;;;;;;3.30;3.00;;;19.30;99.90;;;;;;5092073;27;20937;-67
2023/08/01 00:05:55;;;;;;;6.13;3.30;;;19.70;99.90;;;;;;5108117;27;20195;-68
2023/08/01 00:08:21;;;;;;;3.60;2.90;;;19.50;99.90;;;;;;5100925;27;20232;-68
2023/08/01 00:10:47;;;;;;;3.80;3.40;;;19.70;99.90;;;;;;5109242;27;20177;-67
2023/08/01 00:13:12;;;;;;;5.17;3.30;;;19.70;99.90;;;;;;5099185;27;20208;-68
2023/08/01 00:15:38;;;;;;;3.87;3.50;;;19.40;99.90;;;;;;5110904;27;20200;-67
2023/08/01 00:18:04;;;;;;;3.83;3.10;;;19.60;99.90;;;;;;5111710;27;20183;-67
2023/08/01 00:20:29;;;;;;;3.30;2.90;;;19.60;99.90;;;;;;5112937;27;20540;-67
2023/08/01 00:22:55;;;;;;;4.10;2.90;;;19.50;99.90;;;;;;5113235;27;20176;-67
2023/08/01 00:25:21;;;;;;;3.80;3.40;;;19.60;99.90;;;;;;5109044;27;20201;-68
2023/08/01 00:27:46;;;;;;;3.83;3.53;;;19.60;99.90;;;;;;5112320;27;20175;-68
2023/08/01 00:30:12;;;;;;;4.03;3.40;;;19.60;99.90;;;;;;5110156;27;20303;-67
2023/08/01 00:32:37;;;;;;;7.23;3.27;;;19.60;99.90;;;;;;5111141;27;20278;-68
2023/08/01 00:35:04;;;;;;;3.70;3.30;;;19.70;99.90;;;;;;5105516;27;20224;-67
2023/08/01 00:37:30;;;;;;;5.35;4.22;;;19.70;99.90;;;;;;5108197;27;20188;-68
2023/08/01 00:39:55;;;;;;;6.07;3.80;;;19.60;99.90;;;;;;5112126;27;20186;-68
2023/08/01 00:42:21;;;;;;;5.03;3.80;;;19.60;99.90;;;;;;5112868;27;20278;-68
2023/08/01 00:44:48;;;;;;;7.90;3.80;;;19.60;99.90;;;;;;5113290;27;20199;-68
2023/08/01 00:47:14;;;;;;;3.75;3.45;;;19.50;99.90;;;;;;5110731;28;20188;-68
2023/08/01 00:49:40;;;;;;;5.60;3.40;;;19.60;99.90;;;;;;5109257;27;20183;-66
2023/08/01 00:52:09;;;;;;;4.47;4.00;;;19.60;99.90;;;;;;5094113;28;20713;-68
2023/08/01 00:54:36;;;;;;;6.80;3.97;;;19.60;99.90;;;;;;5106802;27;20229;-68
2023/08/01 00:57:03;;;;;;;5.10;3.50;;;19.40;99.90;;;;;;5111082;27;20260;-67
2023/08/01 00:59:29;;;;;;;5.07;4.57;;;19.60;99.90;;;;;;5109661;28;21093;-67
2023/08/01 01:01:55;;;;;;;4.20;3.80;;;19.50;99.90;;;;;;5112561;27;20189;-67
2023/08/01 01:04:21;;;;;;;4.67;3.53;;;19.30;99.90;;;;;;5087472;27;20472;-68
2023/08/01 01:06:57;;;;;;;4.60;3.70;;;19.20;99.90;;;;;;5110421;28;20590;-67
2023/08/01 01:09:22;;;;;;;4.40;3.78;;;19.30;99.90;;;;;;5109806;28;20186;-68
2023/08/01 01:11:48;;;;;;;6.17;4.10;;;19.30;99.90;;;;;;5090041;28;20700;-66
2023/08/01 01:14:14;;;;;;;4.50;3.80;;;19.20;99.90;;;;;;5112748;28;20257;-68
2023/08/01 01:16:39;;;;;;;4.77;3.87;;;19.20;99.90;;;;;;5105543;28;20191;-68
2023/08/01 01:19:07;;;;;;;3.70;3.40;;;19.30;99.90;;;;;;5100766;28;20628;-68
2023/08/01 01:21:35;;;;;;;4.65;3.70;;;19.20;99.90;;;;;;5108501;28;20191;-68
2023/08/01 01:24:03;;;;;;;5.57;3.33;;;19.20;99.90;;;;;;5109029;28;20182;-68
2023/08/01 01:26:29;;;;;;;5.00;3.40;;;19.30;99.90;;;;;;5112445;28;20601;-68
2023/08/01 01:28:55;;;;;;;4.07;3.07;;;19.30;99.90;;;;;;5113178;27;20179;-68
2023/08/01 01:31:20;;;;;;;4.75;3.60;;;19.40;99.90;;;;;;5092965;28;20207;-68
2023/08/01 01:33:46;;;;;;;3.73;3.30;;;19.30;99.90;;;;;;5116913;27;20665;-68
2023/08/01 01:36:12;;;;;;;3.90;3.50;;;19.30;99.90;;;;;;5111121;27;20211;-66
2023/08/01 01:38:37;;;;;;;6.23;3.77;;;19.30;99.90;;;;;;5116961;27;20544;-68
2023/08/01 01:41:03;;;;;;;3.13;2.83;;;19.30;99.90;;;;;;5113997;27;20187;-68
2023/08/01 01:43:28;;;;;;;4.70;3.17;;;19.70;99.90;;;;;;5116061;27;20203;-69
2023/08/01 01:45:54;;;;;;;5.20;3.50;;;19.40;99.90;;;;;;5105044;27;20192;-68
2023/08/01 01:48:19;;;;;;;4.37;3.33;;;19.20;99.90;;;;;;5112009;27;20176;-68
2023/08/01 01:50:45;;;;;;;4.33;3.60;;;19.40;99.90;;;;;;5113813;27;20663;-68
2023/08/01 01:53:10;;;;;;;4.83;3.20;;;19.50;99.90;;;;;;5111357;27;20207;-66
2023/08/01 01:55:36;;;;;;;4.30;3.47;;;19.20;99.90;;;;;;5112513;27;20204;-68
2023/08/01 01:58:01;;;;;;;3.60;3.00;;;19.20;99.90;;;;;;5110337;27;20245;-68
2023/08/01 02:00:27;;;;;;;4.90;3.93;;;19.30;99.90;;;;;;5108995;27;20184;-68
2023/08/01 02:02:53;;;;;;;5.13;3.33;;;19.30;99.90;;;;;;5114574;27;20183;-68
2023/08/01 02:05:18;;;;;;;3.93;3.10;;;19.30;99.90;;;;;;5114138;27;20249;-69
2023/08/01 02:07:44;;;;;;;3.80;3.50;;;19.30;99.90;;;;;;5116643;27;20262;-68
2023/08/01 02:10:09;;;;;;;4.73;3.50;;;19.30;99.90;;;;;;5095719;28;20191;-68
2023/08/01 02:12:35;;;;;;;4.60;4.17;;;19.40;99.90;;;;;;5114305;27;20852;-68
2023/08/01 02:15:01;;;;;;;4.93;3.70;;;19.60;99.90;;;;;;5111875;27;20282;-67
2023/08/01 02:17:27;;;;;;;5.60;4.10;;;19.30;99.90;;;;;;5095029;28;20986;-68
2023/08/01 02:19:52;;;;;;;7.77;4.17;;;19.30;99.90;;;;;;5110120;27;20182;-68
2023/08/01 02:22:18;;;;;;;5.27;4.10;;;19.30;99.90;;;;;;5092085;28;20183;-68
2023/08/01 02:24:44;;;;;;;6.00;4.10;;;19.20;99.90;;;;;;5111710;27;20203;-68
2023/08/01 02:27:09;;;;;;;5.20;4.53;;;19.20;99.90;;;;;;5093090;28;20191;-68
2023/08/01 02:29:35;;;;;;;4.90;4.40;;;19.20;99.90;;;;;;5111434;27;20236;-66
2023/08/01 02:32:00;;;;;;;6.00;4.23;;;19.20;99.90;;;;;;5091100;27;20330;-68
2023/08/01 02:34:26;;;;;;;4.83;4.43;;;19.10;99.90;;;;;;5112431;27;20210;-66
2023/08/01 02:36:52;;;;;;;8.50;7.30;;;19.10;99.90;;;;;;5105712;27;20184;-66
2023/08/01 02:39:17;;;;;;;5.93;5.43;;;19.10;99.90;;;;;;5111499;27;20468;-67
2023/08/01 02:41:43;;;;;;;8.37;7.53;;;19.20;99.90;;;;;;5115416;27;20440;-67
2023/08/01 02:44:08;;;;;;;5.23;4.60;;;19.10;99.90;;;;;;5111598;27;20642;-67
2023/08/01 02:46:34;;;;;;;4.60;4.20;;;19.20;99.90;;;;;;5116338;27;20188;-67
2023/08/01 02:48:59;;;;;;;4.60;3.80;;;19.10;99.90;;;;;;5108938;27;20184;-67
2023/08/01 02:51:25;;;;;;;3.93;3.63;;;19.10;99.90;;;;;;5109624;27;20207;-68
2023/08/01 02:53:50;;;;;;;5.80;3.50;;;19.10;99.90;;;;;;5113518;27;20588;-68
2023/08/01 02:56:16;;;;;;;5.40;3.87;;;19.10;99.90;;;;;;5091631;28;20652;-68
2023/08/01 02:58:42;;;;;;;3.50;3.20;;;19.10;99.90;;;;;;5090947;27;20597;-67
2023/08/01 03:01:11;;;;;;;4.83;3.83;;;19.10;99.90;;;;;;5110855;27;20678;-68
2023/08/01 03:03:37;;;;;;;5.05;4.32;;;18.90;99.90;;;;;;5093793;27;20494;-68
2023/08/01 03:06:03;;;;;;;4.40;3.23;;;19.20;99.90;;;;;;5110693;27;20208;-68
2023/08/01 03:08:28;;;;;;;4.33;3.53;;;19.20;99.90;;;;;;5112821;27;20179;-68
2023/08/01 03:10:55;;;;;;;4.00;3.57;;;19.30;99.90;;;;;;5111663;27;20560;-68
2023/08/01 03:13:20;;;;;;;3.95;3.40;;;19.30;99.90;;;;;;5108773;27;20250;-68
2023/08/01 03:15:46;;;;;;;3.60;3.30;;;19.40;99.90;;;;;;5106354;27;20223;-68
2023/08/01 03:18:11;;;;;;;5.27;3.27;;;19.40;99.90;;;;;;5113556;27;20216;-68
2023/08/01 03:20:37;;;;;;;4.07;3.40;;;19.70;99.90;;;;;;5111217;27;20191;-68
2023/08/01 03:23:03;;;;;;;4.00;3.13;;;19.40;99.90;;;;;;5115038;27;20191;-68
2023/08/01 03:25:28;;;;;;;4.40;3.50;;;19.50;99.90;;;;;;5106475;27;20299;-68
2023/08/01 03:27:54;;;;;;;3.90;3.30;;;19.50;99.90;;;;;;5096829;27;20640;-68
2023/08/01 03:30:20;;;;;;;5.37;4.20;;;19.50;99.90;;;;;;5092000;27;20180;-69
2023/08/01 03:32:48;;;;;;;4.57;3.90;;;19.60;99.90;;;;;;5109764;27;20206;-68
2023/08/01 03:35:16;;;;;;;5.55;3.78;;;19.60;99.90;;;;;;5111845;27;20286;-68
2023/08/01 03:37:41;;;;;;;4.28;3.15;;;19.60;99.90;;;;;;5105046;27;20636;-68
2023/08/01 03:40:10;;;;;;;4.30;3.80;;;19.60;99.90;;;;;;5093168;28;20190;-68
2023/08/01 03:42:36;;;;;;;5.28;3.60;;;19.50;99.90;;;;;;5111069;27;20180;-68
2023/08/01 03:45:03;;;;;;;5.90;3.97;;;19.50;99.90;;;;;;5092215;27;20267;-68
2023/08/01 03:47:28;;;;;;;4.53;3.90;;;19.60;99.90;;;;;;5109752;27;20653;-68
2023/08/01 03:49:54;;;;;;;3.70;3.40;;;19.60;99.90;;;;;;5097930;27;20331;-68
2023/08/01 03:52:19;;;;;;;5.17;3.57;;;19.60;99.90;;;;;;5107445;27;20234;-68
2023/08/01 03:54:45;;;;;;;4.57;3.63;;;19.60;99.90;;;;;;5114918;27;20209;-68
2023/08/01 03:57:11;;;;;;;4.15;3.40;;;19.80;99.90;;;;;;5112505;27;20709;-68
2023/08/01 03:59:36;;;;;;;3.93;3.10;;;19.70;99.90;;;;;;5108497;27;20183;-68
2023/08/01 04:02:02;;;;;;;4.53;3.23;;;19.70;99.90;;;;;;5110234;27;20191;-68
2023/08/01 04:04:28;;;;;;;3.93;2.93;;;19.70;99.90;;;;;;5111007;27;20665;-68
2023/08/01 04:06:53;;;;;;;3.87;3.00;;;19.70;99.90;;;;;;5108740;27;20200;-68
2023/08/01 04:09:19;;;;;;;3.30;2.90;;;19.70;99.90;;;;;;5110284;27;20437;-68
2023/08/01 04:11:44;;;;;;;3.20;2.90;;;19.70;99.90;;;;;;5112578;27;20212;-68
2023/08/01 04:14:10;;;;;;;3.27;2.93;;;19.80;99.90;;;;;;5115895;27;20239;-68
2023/08/01 04:16:35;;;;;;;3.80;2.67;;;19.80;99.90;;;;;;5107492;27;20270;-68
2023/08/01 04:19:01;;;;;;;5.70;3.33;;;19.80;99.90;;;;;;5102190;27;20188;-68
2023/08/01 04:21:26;;;;;;;3.23;2.93;;;19.80;99.90;;;;;;5088468;28;20274;-68
2023/08/01 04:23:52;;;;;;;3.90;3.10;;;19.80;99.90;;;;;;5109696;27;20215;-68
2023/08/01 04:26:17;;;;;;;6.90;3.53;;;19.80;99.90;;;;;;5089583;27;20696;-68
2023/08/01 04:28:43;;;;;;;5.37;3.30;;;19.80;99.90;;;;;;5107458;27;20986;-66
2023/08/01 04:31:09;;;;;;;3.07;2.77;;;19.80;99.90;;;;;;5110687;27;20274;-67
2023/08/01 04:33:34;;;;;;;3.30;3.00;;;19.80;99.90;;;;;;5111480;27;20237;-67
2023/08/01 04:36:00;;;;;;;5.43;3.50;;;19.80;99.90;;;;;;5107902;28;20223;-68
2023/08/01 04:38:25;;;;;;;4.10;2.73;;;20.10;99.90;;;;;;5109541;27;21092;-66
2023/08/01 04:40:51;;;;;;;3.57;3.10;;;19.80;99.90;;;;;;5108662;27;20175;-66
2023/08/01 04:43:16;;;;;;;3.90;3.30;;;19.80;99.90;;;;;;5110695;27;20187;-67
2023/08/01 04:45:42;;;;;;;3.70;3.10;;;19.80;99.90;;;;;;5113863;27;20281;-67
2023/08/01 04:48:07;;;;;;;4.17;2.60;;;19.80;99.90;;;;;;5107599;28;20191;-70
2023/08/01 04:50:33;;;;;;;3.30;2.53;;;19.90;99.90;;;;;;5107238;27;20270;-66
2023/08/01 04:52:58;;;;;;;3.23;2.80;;;19.80;99.90;;;;;;5108941;27;20215;-68
2023/08/01 04:55:24;;;;;;;3.50;3.03;;;19.90;99.90;;;;;;5104794;28;20203;-68
2023/08/01 04:57:49;;;;;;;5.30;2.73;;;19.80;99.90;;;;;;5103603;27;20199;-71
2023/08/01 05:00:15;;;;;;;3.90;3.10;;;19.80;99.90;;;;;;5095867;28;20267;-70
2023/08/01 05:02:41;;;;;;;4.37;3.10;;;19.90;99.90;;;;;;5108574;27;20195;-72
2023/08/01 05:05:07;;;;;;;3.40;2.90;;;19.90;99.90;;;;;;5091491;28;20199;-72
2023/08/01 05:07:32;;;;;;;17.02;3.60;;;19.90;99.90;;;;;;5113779;27;20179;-72
2023/08/01 05:09:58;;;;;;;3.27;2.67;;;19.80;99.90;;;;;;5111288;28;20529;-70
2023/08/01 05:12:23;;;;;;;3.63;3.33;;;19.90;99.90;;;;;;5118929;28;20620;-70
2023/08/01 05:14:49;;;;;;;3.70;2.70;;;20.00;99.90;;;;;;5096103;28;20194;-71
2023/08/01 05:17:15;;;;;;;4.57;3.30;;;19.90;99.90;;;;;;5112796;28;20175;-70
2023/08/01 05:19:41;;;;;;;3.78;3.38;;;20.00;99.90;;;;;;5113070;28;20189;-70
2023/08/01 05:22:06;;;;;;;3.90;3.57;;;20.00;99.90;;;;;;5109673;28;20188;-70
2023/08/01 05:24:32;;;;;;;5.33;3.47;;;20.00;99.90;;;;;;5108834;28;20210;-70
2023/08/01 05:26:57;;;;;;;7.30;4.40;;;20.10;99.90;;;;;;5101969;28;20241;-70
2023/08/01 05:29:23;;;;;;;3.73;3.43;;;20.10;99.90;;;;;;5088546;28;20184;-71
2023/08/01 05:31:49;;;;;;;4.37;3.83;;;20.10;99.90;;;;;;5094750;28;20255;-71
2023/08/01 05:34:14;;;;;;;6.10;3.70;;;20.20;99.90;;;;;;5092510;28;20545;-72
2023/08/01 05:36:40;;;;;;;3.90;3.47;;;20.20;99.90;;;;;;5089798;28;20738;-73
2023/08/01 05:39:05;;;;;;;4.57;3.93;;;20.10;99.90;;;;;;5095003;28;20616;-71
2023/08/01 05:41:31;;;;;;;5.70;3.43;;;20.20;99.90;;;;;;5097975;28;20183;-72
2023/08/01 05:43:59;;;;;;;4.00;3.50;;;20.30;99.90;;;;;;5094254;28;20190;-69
2023/08/01 05:46:24;;;;;;;6.97;4.97;;;20.00;99.90;;;;;;5088813;28;20804;-69
2023/08/01 05:48:50;;;;;;;6.80;4.10;;;20.20;99.90;;;;;;5106799;28;20195;-70
2023/08/01 05:51:15;;;;;;;4.33;3.73;;;20.30;99.90;;;;;;5083995;28;20187;-69
2023/08/01 05:53:41;;;;;;;4.70;3.87;;;20.30;99.90;;;;;;5110501;28;20256;-70
2023/08/01 05:56:06;;;;;;;6.67;4.23;;;20.30;99.90;;;;;;5109249;28;20868;-69
2023/08/01 05:58:32;;;;;;;5.40;3.30;;;20.40;99.90;;;;;;5104307;28;20558;-70
2023/08/01 06:00:58;;;;;;;4.80;3.77;;;20.50;99.90;;;;;;5115460;28;20179;-69
2023/08/01 06:03:23;;;;;;;4.73;3.70;;;20.60;99.90;;;;;;5107839;28;20671;-68
2023/08/01 06:05:49;;;;;;;4.10;3.70;;;20.60;99.90;;;;;;5090622;28;20231;-68
2023/08/01 06:08:15;;;;;;;4.13;3.73;;;20.70;99.90;;;;;;5083240;28;20194;-69
2023/08/01 06:10:41;;;;;;;3.60;3.08;;;20.60;99.90;;;;;;5090696;28;20194;-69
2023/08/01 06:13:07;;;;;;;4.63;4.07;;;20.70;99.90;;;;;;5110997;28;20205;-69
2023/08/01 06:15:33;;;;;;;3.33;3.03;;;20.70;99.90;;;;;;5093954;27;20227;-70
2023/08/01 06:17:59;;;;;;;5.30;3.70;;;20.60;99.90;;;;;;5108472;27;20231;-71
2023/08/01 06:20:24;;;;;;;3.47;2.97;;;20.60;99.90;;;;;;5104551;27;20627;-72
2023/08/01 06:22:50;;;;;;;4.67;3.63;;;20.60;99.90;;;;;;5098425;27;20550;-69
2023/08/01 06:25:16;;;;;;;4.13;3.70;;;20.60;99.90;;;;;;5112445;27;20833;-69
2023/08/01 06:27:41;;;;;;;3.70;2.90;;;20.20;99.90;;;;;;5110727;27;20651;-69
2023/08/01 06:30:07;;;;;;;5.90;3.70;;;20.70;99.90;;;;;;5096260;27;20244;-68
2023/08/01 06:32:33;;;;;;;9.93;3.92;;;20.60;99.90;;;;;;5117890;27;20675;-68
2023/08/01 06:34:58;;;;;;;5.70;4.20;;;20.40;99.90;;;;;;5116034;27;20199;-72
2023/08/01 06:37:24;;;;;;;4.23;3.93;;;20.30;99.90;;;;;;5092881;27;20183;-72
2023/08/01 06:39:50;;;;;;;4.37;3.97;;;20.30;99.90;;;;;;5108846;27;20239;-70
2023/08/01 06:42:16;;;;;;;4.77;4.10;;;20.10;99.90;;;;;;5111134;27;20248;-71
2023/08/01 06:44:41;;;;;;;5.20;4.70;;;19.70;99.90;;;;;;5092921;27;20203;-71
2023/08/01 06:47:07;;;;;;;5.10;4.40;;;20.10;99.90;;;;;;5106903;27;21024;-68
2023/08/01 06:49:33;;;;;;;5.10;4.50;;;19.70;99.90;;;;;;5103551;27;20199;-69
2023/08/01 06:51:58;;;;;;;7.03;4.63;;;20.00;99.90;;;;;;5108354;27;20318;-69
2023/08/01 06:54:24;;;;;;;8.10;5.23;;;19.90;99.90;;;;;;5112214;27;20235;-70
2023/08/01 06:56:49;;;;;;;6.60;5.60;;;19.80;99.90;;;;;;5104644;27;20246;-70
2023/08/01 06:59:15;;;;;;;8.90;7.00;;;19.70;99.90;;;;;;5104946;27;20206;-70
2023/08/01 07:01:43;;;;;;;5.40;4.67;;;19.60;99.90;;;;;;5109219;27;20187;-67
2023/08/01 07:04:12;;;;;;;7.45;5.22;;;19.40;99.90;;;;;;5111419;27;20199;-72
2023/08/01 07:06:38;;;;;;;5.40;4.57;;;19.20;99.90;;;;;;5095746;27;20196;-72
2023/08/01 07:09:04;;;;;;;5.93;5.33;;;19.00;99.90;;;;;;5093555;27;20190;-71
2023/08/01 07:11:29;;;;;;;6.80;6.10;;;18.90;99.90;;;;;;5108549;27;20216;-71
2023/08/01 07:13:55;;;;;;;8.03;5.97;;;18.90;99.90;;;;;;5106864;27;20184;-70
2023/08/01 07:16:20;;;;;;;6.30;5.17;;;18.90;99.90;;;;;;5093917;27;20248;-70
2023/08/01 07:18:48;;;;;;;6.43;5.30;;;19.20;99.90;;;;;;5107237;27;20252;-71
2023/08/01 07:21:13;;;;;;;6.57;5.40;;;18.90;99.90;;;;;;5118817;27;20196;-72
2023/08/01 07:23:39;;;;;;;7.97;5.20;;;19.00;99.90;;;;;;5109760;27;21486;-72
2023/08/01 07:26:05;;;;;;;5.00;4.30;;;18.90;99.90;;;;;;5105995;27;20582;-72
2023/08/01 07:28:30;;;;;;;6.70;4.90;;;19.00;99.90;;;;;;5086136;27;20953;-73
2023/08/01 07:31:05;;;;;;;7.40;6.03;;;18.70;99.90;;;;;;5107407;27;20190;-71
2023/08/01 07:33:31;;;;;;;6.07;5.15;;;18.50;99.90;;;;;;5112669;27;20209;-70
2023/08/01 07:35:57;;;;;;;6.97;4.85;;;18.40;99.90;;;;;;5110778;27;20279;-73
2023/08/01 07:38:22;;;;;;;7.67;5.63;;;18.40;99.90;;;;;;5109282;27;20267;-74
2023/08/01 07:40:50;;;;;;;6.30;5.20;;;18.50;99.90;;;;;;5108899;27;20187;-75
2023/08/01 07:43:15;;;;;;;7.15;5.70;;;18.20;99.90;;;;;;5111977;27;20174;-73
2023/08/01 07:45:41;;;;;;;6.57;5.00;;;18.00;99.90;;;;;;5089883;27;20199;-68
2023/08/01 07:48:07;;;;;;;7.50;4.13;;;17.80;99.90;;;;;;5110430;27;20182;-67
2023/08/01 07:50:32;;;;;;;6.17;4.47;;;17.70;99.90;;;;;;5104424;27;20444;-68
2023/08/01 07:52:58;;;;;;;9.70;5.50;;;17.70;99.90;;;;;;5105740;27;20196;-67
2023/08/01 07:55:24;;;;;;;6.87;3.90;;;17.70;99.90;;;;;;5109996;27;20275;-69
2023/08/01 07:57:49;;;;;;;4.53;4.10;;;17.60;99.90;;;;;;5094848;28;20737;-70
2023/08/01 08:00:15;;;;;;;4.50;4.10;;;17.80;99.90;;;;;;5090935;27;20665;-70
2023/08/01 08:02:42;;;;;;;3.85;2.97;;;17.60;99.90;;;;;;5108181;27;20197;-69
2023/08/01 08:05:08;;;;;;;4.05;3.65;;;17.60;99.90;;;;;;5109273;27;20481;-71
2023/08/01 08:07:34;;;;;;;4.07;3.70;;;17.60;99.90;;;;;;5091914;27;20219;-71
2023/08/01 08:09:59;;;;;;;3.40;3.10;;;17.60;99.90;;;;;;5110718;27;20215;-72
2023/08/01 08:12:25;;;;;;;4.10;3.00;;;17.60;99.90;;;;;;5087633;27;20256;-72
2023/08/01 08:14:51;;;;;;;3.60;3.03;;;18.10;99.90;;;;;;5086522;27;20575;-72
2023/08/01 08:17:16;;;;;;;2.77;2.53;;;17.70;99.90;;;;;;5092679;28;20225;-69
2023/08/01 08:19:42;;;;;;;3.20;2.90;;;17.70;99.90;;;;;;5100719;27;20682;-71
2023/08/01 08:22:07;;;;;;;3.77;3.10;;;17.80;99.90;;;;;;5107265;27;20639;-72
2023/08/01 08:24:33;;;;;;;3.33;2.47;;;17.90;99.90;;;;;;5093400;27;20616;-71
2023/08/01 08:26:58;;;;;;;4.23;2.63;;;17.70;99.90;;;;;;5105646;27;20176;-68
2023/08/01 08:29:24;;;;;;;3.70;2.90;;;17.90;99.90;;;;;;5104136;27;20638;-70
2023/08/01 08:31:50;;;;;;;2.97;2.67;;;18.10;99.90;;;;;;5104984;27;20631;-72
2023/08/01 08:34:15;;;;;;;3.10;2.80;;;18.10;99.90;;;;;;5089124;27;20290;-72
2023/08/01 08:36:41;;;;;;;3.37;2.83;;;18.40;99.90;;;;;;5109696;27;20271;-76
2023/08/01 08:39:07;;;;;;;3.63;2.77;;;18.20;99.90;;;;;;5087639;28;20182;-76
2023/08/01 08:41:48;;;;;;;3.63;2.57;;;18.30;99.90;;;;;;5110198;27;20440;-80
2023/08/01 08:44:20;;;;;;;3.67;2.97;;;18.40;99.90;;;;;;5094124;28;20254;-76
2023/08/01 08:46:51;;;;;;;6.55;2.80;;;18.60;99.90;;;;;;5105005;27;20191;-72
2023/08/01 08:49:19;;;;;;;2.53;2.30;;;18.70;99.90;;;;;;5110420;27;20186;-73
2023/08/01 08:51:46;;;;;;;4.13;2.75;;;18.70;99.90;;;;;;5109564;27;20199;-69
2023/08/01 08:54:12;;;;;;;3.13;2.83;;;19.30;99.90;;;;;;5093176;28;20182;-69
2023/08/01 08:56:40;;;;;;;3.70;3.00;;;19.50;99.90;;;;;;5105183;28;20195;-69
2023/08/01 08:59:12;;;;;;;2.90;2.47;;;19.50;99.90;;;;;;5109421;27;20171;-67
2023/08/01 09:01:38;;;;;;;3.20;2.90;;;19.80;99.90;;;;;;5106610;27;20214;-69
2023/08/01 09:04:04;;;;;;;3.10;2.63;;;19.80;99.90;;;;;;5103407;28;20214;-66
2023/08/01 09:06:34;;;;;;;2.47;2.27;;;19.70;99.90;;;;;;5110960;28;20332;-67
2023/08/01 09:09:12;;;;;;;3.78;2.75;;;19.70;99.90;;;;;;5111309;27;20433;-68
2023/08/01 09:11:46;;;;;;;2.60;2.40;;;19.70;99.90;;;;;;5089547;28;20211;-68
2023/08/01 09:14:13;;;;;;;2.58;2.30;;;19.70;99.90;;;;;;5108784;28;20182;-67
2023/08/01 09:16:40;;;;;;;3.60;3.10;;;19.70;99.90;;;;;;5110617;28;20266;-68
2023/08/01 09:19:06;;;;;;;2.30;2.10;;;19.90;99.90;;;;;;5108765;28;20182;-72
2023/08/01 09:21:37;;;;;;;2.85;2.35;;;19.90;99.90;;;;;;5107098;28;20179;-71
2023/08/01 09:24:10;;;;;;;2.35;2.05;;;19.80;99.90;;;;;;5106261;28;20187;-70
2023/08/01 09:26:37;;;;;;;1.98;1.88;;;19.80;99.90;;;;;;5091061;28;20221;-69
2023/08/01 09:29:02;;;;;;;3.60;2.13;;;19.90;99.90;;;;;;5109394;28;20175;-68
2023/08/01 09:31:39;;;;;;;1.90;1.77;;;19.90;99.90;;;;;;5107808;28;20188;-69
2023/08/01 09:34:06;;;;;;;2.60;2.40;;;20.00;99.90;;;;;;5108663;28;20172;-69
2023/08/01 09:36:35;;;;;;;1.85;1.60;;;19.90;99.90;;;;;;5091587;28;20584;-69
2023/08/01 09:39:02;;;;;;;1.80;1.70;;;20.00;99.90;;;;;;5103836;28;20551;-68
2023/08/01 09:41:29;;;;;;;2.13;1.92;;;20.10;99.90;;;;;;5107763;28;20253;-69
2023/08/01 09:43:55;;;;;;;1.95;1.80;;;20.30;99.90;;;;;;5104103;28;20640;-69
2023/08/01 09:46:21;;;;;;;2.03;1.53;;;20.40;99.90;;;;;;5110538;28;20923;-69
2023/08/01 09:48:47;;;;;;;2.00;1.80;;;20.60;99.90;;;;;;5112714;28;20436;-71
2023/08/01 09:51:14;;;;;;;1.70;1.60;;;20.80;99.90;;;;;;5094073;27;20266;-71
2023/08/01 09:54:06;;;;;;;1.30;1.20;;;21.00;99.90;;;;;;5113236;27;20214;-72
2023/08/01 09:56:32;;;;;;;1.60;1.38;;;21.10;99.90;;;;;;5093445;27;20230;-70
2023/08/01 09:59:01;;;;;;;1.70;1.60;;;21.20;99.90;;;;;;5110648;27;20191;-68
2023/08/01 10:01:27;;;;;;;1.40;1.30;;;21.10;99.90;;;;;;5106495;27;20566;-70
2023/08/01 10:03:56;;;;;;;1.02;0.90;;;21.20;99.90;;;;;;5103633;27;20190;-73
2023/08/01 10:06:23;;;;;;;1.20;1.10;;;21.40;99.90;;;;;;5107525;27;20254;-70
2023/08/01 10:08:51;;;;;;;2.53;1.50;;;21.40;99.90;;;;;;5093709;27;20187;-70
2023/08/01 10:11:19;;;;;;;1.10;1.00;;;21.60;99.90;;;;;;5112508;27;20173;-67
2023/08/01 10:13:45;;;;;;;0.90;0.80;;;21.60;99.90;;;;;;5112178;27;20178;-69
2023/08/01 10:16:12;;;;;;;1.60;1.00;;;21.60;99.90;;;;;;5109850;27;20214;-72
2023/08/01 10:18:39;;;;;;;1.45;0.80;;;21.50;99.90;;;;;;5090928;27;20172;-72
2023/08/01 10:21:11;;;;;;;1.85;1.00;;;21.50;99.90;;;;;;5092746;27;20191;-72
2023/08/01 10:23:38;;;;;;;0.95;0.90;;;21.50;99.90;;;;;;5091347;27;20240;-72
2023/08/01 10:26:06;;;;;;;1.52;1.30;;;21.50;99.90;;;;;;5094989;27;20231;-71
2023/08/01 10:28:37;;;;;;;1.85;1.75;;;21.30;99.90;;;;;;5104215;27;20218;-72
2023/08/01 10:31:08;;;;;;;1.00;0.90;;;21.50;99.90;;;;;;5113433;27;20216;-72
2023/08/01 10:33:34;;;;;;;1.35;1.25;;;21.60;99.90;;;;;;5113739;27;20254;-69
2023/08/01 10:36:00;;;;;;;2.22;0.85;;;21.50;99.90;;;;;;5109922;27;20268;-69
2023/08/01 10:38:25;;;;;;;1.37;0.77;;;21.20;99.90;;;;;;5104900;27;20621;-69
2023/08/01 10:40:51;;;;;;;1.10;0.90;;;21.90;99.90;;;;;;5108576;27;20261;-69
2023/08/01 10:43:24;;;;;;;1.27;1.00;;;22.00;99.90;;;;;;5110472;27;20193;-69
2023/08/01 10:46:05;;;;;;;1.00;0.80;;;22.30;99.90;;;;;;5104522;27;20483;-69
2023/08/01 10:48:31;;;;;;;2.40;1.20;;;22.80;99.90;;;;;;5111507;27;20440;-68
2023/08/01 10:50:57;;;;;;;1.20;0.97;;;23.20;99.90;;;;;;5117938;27;20436;-68
2023/08/01 10:53:23;;;;;;;1.80;1.20;;;23.60;99.90;;;;;;5092905;27;20240;-68
2023/08/01 10:55:49;;;;;;;2.30;1.20;;;23.60;99.90;;;;;;5116584;27;20199;-68
2023/08/01 10:58:15;;;;;;;1.60;1.00;;;23.40;99.90;;;;;;5106772;27;20596;-68
2023/08/01 11:00:42;;;;;;;1.00;0.90;;;23.20;99.90;;;;;;5094355;28;20436;-68
2023/08/01 11:03:08;;;;;;;0.80;0.70;;;23.00;99.90;;;;;;5117770;27;20437;-68
2023/08/01 11:05:34;;;;;;;1.40;0.97;;;22.90;99.90;;;;;;5112538;27;20479;-69
2023/08/01 11:08:01;;;;;;;2.00;1.20;;;23.00;99.90;;;;;;5111133;27;20531;-69
2023/08/01 11:10:32;;;;;;;1.20;0.90;;;23.20;99.90;;;;;;5111320;27;20187;-68
2023/08/01 11:12:59;;;;;;;1.90;1.00;;;23.30;99.30;;;;;;5114590;27;20458;-69
2023/08/01 11:15:25;;;;;;;3.10;1.00;;;23.50;99.20;;;;;;5100885;27;20456;-68
2023/08/01 11:17:54;;;;;;;1.80;0.80;;;23.50;98.80;;;;;;5110684;27;20450;-68
2023/08/01 11:20:22;;;;;;;1.23;0.93;;;23.90;96.90;;;;;;5113027;27;20187;-70
2023/08/01 11:23:00;;;;;;;1.10;1.00;;;24.90;96.90;;;;;;5107441;27;20904;-69
2023/08/01 11:25:43;;;;;;;0.90;0.80;;;25.90;93.90;;;;;;5091559;27;20464;-81
2023/08/01 11:28:15;;;;;;;1.30;1.20;;;26.40;91.10;;;;;;5084353;27;20979;-77
2023/08/01 11:30:40;;;;;;;1.13;1.00;;;26.00;91.20;;;;;;5114430;27;20443;-78
2023/08/01 11:33:20;;;;;;;1.00;0.90;;;26.10;90.60;;;;;;5108406;27;20886;-80
2023/08/01 11:35:50;;;;;;;1.10;0.97;;;26.60;90.30;;;;;;5106025;27;20454;-76
2023/08/01 11:38:16;;;;;;;1.23;1.13;;;26.70;84.50;;;;;;5093410;27;20441;-79
2023/08/01 11:40:42;;;;;;;1.60;1.47;;;27.10;81.80;;;;;;5087076;28;20801;-76
2023/08/01 11:43:08;;;;;;;1.33;1.00;;;27.60;80.30;;;;;;5092439;27;20448;-75
2023/08/01 11:45:33;;;;;;;2.43;1.60;;;28.30;76.60;;;;;;5108163;27;20810;-69
2023/08/01 11:47:59;;;;;;;2.40;1.33;;;28.60;75.90;;;;;;5109959;27;20491;-72
2023/08/01 11:50:26;;;;;;;1.73;1.17;;;28.70;73.60;;;;;;5108539;27;20216;-69
2023/08/01 11:52:52;;;;;;;1.37;1.27;;;28.00;73.20;;;;;;5113940;27;20291;-73
2023/08/01 11:55:26;;;;;;;1.70;1.40;;;27.90;73.10;;;;;;5093955;27;20463;-72
2023/08/01 11:57:57;;;;;;;1.60;1.50;;;27.50;73.80;;;;;;5085276;28;20449;-72
2023/08/01 12:00:24;;;;;;;1.43;1.27;;;27.10;73.90;;;;;;5110035;27;20448;-68
2023/08/01 12:02:50;;;;;;;1.57;1.20;;;26.90;75.00;;;;;;5109666;27;20451;-69
2023/08/01 12:05:23;;;;;;;1.27;1.17;;;26.70;74.60;;;;;;5104666;27;20478;-68
2023/08/01 12:07:49;;;;;;;1.83;1.57;;;26.30;76.50;;;;;;5112958;27;20444;-69
2023/08/01 12:10:14;;;;;;;1.93;1.00;;;26.20;79.80;;;;;;5107612;27;20448;-68
2023/08/01 12:12:48;;;;;;;1.30;1.20;;;25.80;79.40;;;;;;5105206;27;20217;-68
2023/08/01 12:15:15;;;;;;;1.60;1.20;;;25.60;80.30;;;;;;5112128;27;20206;-68
2023/08/01 12:17:41;;;;;;;1.80;1.20;;;25.20;82.30;;;;;;5110653;27;20837;-68
2023/08/01 12:20:07;;;;;;;2.00;1.00;;;25.10;81.30;;;;;;5085765;28;20455;-68
2023/08/01 12:22:33;;;;;;;2.23;1.37;;;24.90;82.50;;;;;;5106457;27;20515;-68
2023/08/01 12:24:58;;;;;;;1.50;1.20;;;24.50;82.80;;;;;;5109722;27;20496;-68
2023/08/01 12:27:24;;;;;;;3.03;2.73;;;24.70;83.50;;;;;;5110986;27;20572;-69
2023/08/01 12:29:49;;;;;;;2.20;2.00;;;24.50;84.90;;;;;;5085676;28;20625;-70
2023/08/01 12:32:15;;;;;;;2.63;1.43;;;24.60;84.80;;;;;;5103628;27;20367;-69
2023/08/01 12:34:40;;;;;;;1.67;1.33;;;24.30;86.10;;;;;;5087857;27;20207;-69
2023/08/01 12:37:06;;;;;;;2.33;1.30;;;24.20;84.40;;;;;;5101630;27;20180;-72
2023/08/01 12:39:31;;;;;;;1.87;1.40;;;24.40;86.40;;;;;;5087551;28;20324;-71
2023/08/01 12:41:57;;;;;;;1.40;1.30;;;23.90;87.10;;;;;;5106661;27;20325;-68
2023/08/01 12:44:22;;;;;;;2.03;1.30;;;23.90;88.20;;;;;;5086379;28;20687;-68